sensor_id;sensor_type;location;lat;lon;timestamp;temperature;humidity
65036;DHT22;51603;49.300;8.880;2023-09-08T00:00:51;17.40;99.90
65036;DHT22;51603;49.300;8.880;2023-09-08T00:03:17;17.40;99.90
65036;DHT22;51603;49.300;8.880;2023-09-08T00:05:42;17.40;99.90
65036;DHT22;51603;49.300;8.880;2023-09-08T00:08:08;17.40;99.90
65036;DHT22;51603;49.300;8.880;2023-09-08T00:10:33;17.30;99.90
65036;DHT22;51603;49.300;8.880;2023-09-08T00:12:59;17.30;99.90
65036;DHT22;51603;49.300;8.880;2023-09-08T00:15:24;17.30;99.90
65036;DHT22;51603;49.300;8.880;2023-09-08T00:17:50;17.20;99.90
65036;DHT22;51603;49.300;8.880;2023-09-08T00:20:15;17.20;99.90
65036;DHT22;51603;49.300;8.880;2023-09-08T00:22:41;17.20;99.90
65036;DHT22;51603;49.300;8.880;2023-09-08T00:25:07;17.20;99.90
65036;DHT22;51603;49.300;8.880;2023-09-08T00:27:32;17.20;99.90
65036;DHT22;51603;49.300;8.880;2023-09-08T00:29:58;17.10;99.90
65036;DHT22;51603;49.300;8.880;2023-09-08T00:32:24;17.10;99.90
65036;DHT22;51603;49.300;8.880;2023-09-08T00:34:49;17.10;99.90
65036;DHT22;51603;49.300;8.880;2023-09-08T00:37:15;17.10;99.90
65036;DHT22;51603;49.300;8.880;2023-09-08T00:39:40;17.00;99.90
65036;DHT22;51603;49.300;8.880;2023-09-08T00:42:06;17.00;99.90
65036;DHT22;51603;49.300;8.880;2023-09-08T00:44:32;16.90;99.90
65036;DHT22;51603;49.300;8.880;2023-09-08T00:46:58;16.90;99.90
65036;DHT22;51603;49.300;8.880;2023-09-08T00:49:24;16.90;99.90
65036;DHT22;51603;49.300;8.880;2023-09-08T00:51:49;16.90;99.90
65036;DHT22;51603;49.300;8.880;2023-09-08T00:54:15;16.90;99.90
65036;DHT22;51603;49.300;8.880;2023-09-08T00:56:40;16.90;99.90
65036;DHT22;51603;49.300;8.880;2023-09-08T00:59:07;16.90;99.90
65036;DHT22;51603;49.300;8.880;2023-09-08T01:01:33;16.80;99.90
65036;DHT22;51603;49.300;8.880;2023-09-08T01:04:01;16.80;99.90
65036;DHT22;51603;49.300;8.880;2023-09-08T01:06:27;16.80;99.90
65036;DHT22;51603;49.300;8.880;2023-09-08T01:08:53;16.80;99.90
65036;DHT22;51603;49.300;8.880;2023-09-08T01:11:20;16.70;99.90
65036;DHT22;51603;49.300;8.880;2023-09-08T01:13:46;16.70;99.90
65036;DHT22;51603;49.300;8.880;2023-09-08T01:16:12;16.70;99.90
65036;DHT22;51603;49.300;8.880;2023-09-08T01:18:37;16.60;99.90
65036;DHT22;51603;49.300;8.880;2023-09-08T01:21:13;16.60;99.90
65036;DHT22;51603;49.300;8.880;2023-09-08T01:26:41;16.50;99.90
65036;DHT22;51603;49.300;8.880;2023-09-08T01:29:07;16.50;99.90
65036;DHT22;51603;49.300;8.880;2023-09-08T01:31:34;16.50;99.90
65036;DHT22;51603;49.300;8.880;2023-09-08T01:34:01;16.50;99.90
65036;DHT22;51603;49.300;8.880;2023-09-08T01:36:30;16.50;99.90
65036;DHT22;51603;49.300;8.880;2023-09-08T01:38:55;16.50;99.90
65036;DHT22;51603;49.300;8.880;2023-09-08T01:41:21;16.50;99.90
65036;DHT22;51603;49.300;8.880;2023-09-08T01:43:46;16.40;99.90
65036;DHT22;51603;49.300;8.880;2023-09-08T01:46:12;16.40;99.90
65036;DHT22;51603;49.300;8.880;2023-09-08T01:48:38;16.40;99.90
65036;DHT22;51603;49.300;8.880;2023-09-08T01:51:03;16.40;99.90
65036;DHT22;51603;49.300;8.880;2023-09-08T01:53:29;16.40;99.90
65036;DHT22;51603;49.300;8.880;2023-09-08T01:55:55;16.40;99.90
65036;DHT22;51603;49.300;8.880;2023-09-08T01:58:20;16.40;99.90
65036;DHT22;51603;49.300;8.880;2023-09-08T02:00:50;16.40;99.90
65036;DHT22;51603;49.300;8.880;2023-09-08T02:03:16;16.40;99.90
65036;DHT22;51603;49.300;8.880;2023-09-08T02:05:42;16.40;99.90
65036;DHT22;51603;49.300;8.880;2023-09-08T02:08:07;16.40;99.90
65036;DHT22;51603;49.300;8.880;2023-09-08T02:10:39;16.30;99.90
65036;DHT22;51603;49.300;8.880;2023-09-08T02:13:05;16.30;99.90
65036;DHT22;51603;49.300;8.880;2023-09-08T02:15:30;16.30;99.90
65036;DHT22;51603;49.300;8.880;2023-09-08T02:17:56;16.30;99.90
65036;DHT22;51603;49.300;8.880;2023-09-08T02:20:21;16.30;99.90
65036;DHT22;51603;49.300;8.880;2023-09-08T02:22:49;16.20;99.90
65036;DHT22;51603;49.300;8.880;2023-09-08T02:25:15;16.20;99.90
65036;DHT22;51603;49.300;8.880;2023-09-08T02:27:41;16.20;99.90
65036;DHT22;51603;49.300;8.880;2023-09-08T02:30:06;16.20;99.90
65036;DHT22;51603;49.300;8.880;2023-09-08T02:32:32;16.20;99.90
65036;DHT22;51603;49.300;8.880;2023-09-08T02:34:58;16.20;99.90
65036;DHT22;51603;49.300;8.880;2023-09-08T02:37:23;16.20;99.90
65036;DHT22;51603;49.300;8.880;2023-09-08T02:39:49;16.10;99.90
65036;DHT22;51603;49.300;8.880;2023-09-08T02:42:14;16.10;99.90
65036;DHT22;51603;49.300;8.880;2023-09-08T02:44:39;16.10;99.90
65036;DHT22;51603;49.300;8.880;2023-09-08T02:47:05;16.10;99.90
65036;DHT22;51603;49.300;8.880;2023-09-08T02:49:31;16.10;99.90
65036;DHT22;51603;49.300;8.880;2023-09-08T02:51:57;16.10;99.90
65036;DHT22;51603;49.300;8.880;2023-09-08T02:54:23;16.10;99.90
65036;DHT22;51603;49.300;8.880;2023-09-08T02:56:48;16.00;99.90
65036;DHT22;51603;49.300;8.880;2023-09-08T02:59:14;16.00;99.90
65036;DHT22;51603;49.300;8.880;2023-09-08T03:01:39;16.00;99.90
65036;DHT22;51603;49.300;8.880;2023-09-08T03:04:05;16.00;99.90
65036;DHT22;51603;49.300;8.880;2023-09-08T03:06:30;16.00;99.90
65036;DHT22;51603;49.300;8.880;2023-09-08T03:08:58;15.90;99.90
65036;DHT22;51603;49.300;8.880;2023-09-08T03:11:24;15.90;99.90
65036;DHT22;51603;49.300;8.880;2023-09-08T03:13:49;15.90;99.90
65036;DHT22;51603;49.300;8.880;2023-09-08T03:16:15;15.90;99.90
65036;DHT22;51603;49.300;8.880;2023-09-08T03:18:41;15.90;99.90
65036;DHT22;51603;49.300;8.880;2023-09-08T03:21:06;15.90;99.90
65036;DHT22;51603;49.300;8.880;2023-09-08T03:23:39;15.90;99.90
65036;DHT22;51603;49.300;8.880;2023-09-08T03:26:05;15.90;99.90
65036;DHT22;51603;49.300;8.880;2023-09-08T03:28:32;15.90;99.90
65036;DHT22;51603;49.300;8.880;2023-09-08T03:30:58;15.90;99.90
65036;DHT22;51603;49.300;8.880;2023-09-08T03:33:23;15.90;99.90
65036;DHT22;51603;49.300;8.880;2023-09-08T03:35:49;15.80;99.90
65036;DHT22;51603;49.300;8.880;2023-09-08T03:38:14;15.80;99.90
65036;DHT22;51603;49.300;8.880;2023-09-08T03:40:40;15.70;99.90
65036;DHT22;51603;49.300;8.880;2023-09-08T03:43:06;15.70;99.90
65036;DHT22;51603;49.300;8.880;2023-09-08T03:45:32;15.70;99.90
65036;DHT22;51603;49.300;8.880;2023-09-08T03:47:57;15.70;99.90
65036;DHT22;51603;49.300;8.880;2023-09-08T03:50:24;15.60;99.90
65036;DHT22;51603;49.300;8.880;2023-09-08T03:52:50;15.70;99.90
65036;DHT22;51603;49.300;8.880;2023-09-08T03:55:15;15.60;99.90
65036;DHT22;51603;49.300;8.880;2023-09-08T03:57:42;15.60;99.90
65036;DHT22;51603;49.300;8.880;2023-09-08T04:00:08;15.60;99.90
65036;DHT22;51603;49.300;8.880;2023-09-08T04:02:36;15.50;99.90
65036;DHT22;51603;49.300;8.880;2023-09-08T04:05:01;15.50;99.90
65036;DHT22;51603;49.300;8.880;2023-09-08T04:07:27;15.50;99.90
65036;DHT22;51603;49.300;8.880;2023-09-08T04:09:52;15.50;99.90
65036;DHT22;51603;49.300;8.880;2023-09-08T04:12:18;15.50;99.90
65036;DHT22;51603;49.300;8.880;2023-09-08T04:14:43;15.40;99.90
65036;DHT22;51603;49.300;8.880;2023-09-08T04:17:09;15.40;99.90
65036;DHT22;51603;49.300;8.880;2023-09-08T04:19:35;15.50;99.90
65036;DHT22;51603;49.300;8.880;2023-09-08T04:22:00;15.50;99.90
65036;DHT22;51603;49.300;8.880;2023-09-08T04:24:26;15.50;99.90
65036;DHT22;51603;49.300;8.880;2023-09-08T04:26:51;15.50;99.90
65036;DHT22;51603;49.300;8.880;2023-09-08T04:29:16;15.50;99.90
65036;DHT22;51603;49.300;8.880;2023-09-08T04:31:42;15.50;99.90
65036;DHT22;51603;49.300;8.880;2023-09-08T04:34:07;15.50;99.90
65036;DHT22;51603;49.300;8.880;2023-09-08T04:36:33;15.50;99.90
65036;DHT22;51603;49.300;8.880;2023-09-08T04:38:58;15.50;99.90
65036;DHT22;51603;49.300;8.880;2023-09-08T04:41:24;15.50;99.90
65036;DHT22;51603;49.300;8.880;2023-09-08T04:43:49;15.40;99.90
65036;DHT22;51603;49.300;8.880;2023-09-08T04:46:15;15.40;99.90
65036;DHT22;51603;49.300;8.880;2023-09-08T04:48:40;15.50;99.90
65036;DHT22;51603;49.300;8.880;2023-09-08T04:51:07;15.40;99.90
65036;DHT22;51603;49.300;8.880;2023-09-08T04:53:33;15.40;99.90
65036;DHT22;51603;49.300;8.880;2023-09-08T04:55:58;15.40;99.90
65036;DHT22;51603;49.300;8.880;2023-09-08T04:58:24;15.40;99.90
65036;DHT22;51603;49.300;8.880;2023-09-08T05:00:51;15.40;99.90
65036;DHT22;51603;49.300;8.880;2023-09-08T05:03:16;15.40;99.90
65036;DHT22;51603;49.300;8.880;2023-09-08T05:05:41;15.40;99.90
65036;DHT22;51603;49.300;8.880;2023-09-08T05:08:07;15.40;99.90
65036;DHT22;51603;49.300;8.880;2023-09-08T05:10:32;15.40;99.90
65036;DHT22;51603;49.300;8.880;2023-09-08T05:12:58;15.40;99.90
65036;DHT22;51603;49.300;8.880;2023-09-08T05:15:23;15.40;99.90
65036;DHT22;51603;49.300;8.880;2023-09-08T05:17:50;15.40;99.90
65036;DHT22;51603;49.300;8.880;2023-09-08T05:20:16;15.40;99.90
65036;DHT22;51603;49.300;8.880;2023-09-08T05:22:41;15.40;99.90
65036;DHT22;51603;49.300;8.880;2023-09-08T05:25:07;15.50;99.90
65036;DHT22;51603;49.300;8.880;2023-09-08T05:27:33;15.50;99.90
65036;DHT22;51603;49.300;8.880;2023-09-08T05:29:58;15.50;99.90
65036;DHT22;51603;49.300;8.880;2023-09-08T05:32:24;15.50;99.90
65036;DHT22;51603;49.300;8.880;2023-09-08T05:34:50;15.60;99.90
65036;DHT22;51603;49.300;8.880;2023-09-08T05:37:15;15.60;99.90
65036;DHT22;51603;49.300;8.880;2023-09-08T05:39:41;15.60;99.90
65036;DHT22;51603;49.300;8.880;2023-09-08T05:42:06;15.60;99.90
65036;DHT22;51603;49.300;8.880;2023-09-08T05:44:32;15.60;99.90
65036;DHT22;51603;49.300;8.880;2023-09-08T05:46:58;15.70;99.90
65036;DHT22;51603;49.300;8.880;2023-09-08T05:49:23;15.70;99.90
65036;DHT22;51603;49.300;8.880;2023-09-08T05:51:49;15.70;99.90
65036;DHT22;51603;49.300;8.880;2023-09-08T05:54:15;15.80;99.90
65036;DHT22;51603;49.300;8.880;2023-09-08T05:56:40;15.80;99.90
65036;DHT22;51603;49.300;8.880;2023-09-08T05:59:06;15.90;99.90
65036;DHT22;51603;49.300;8.880;2023-09-08T06:01:31;15.90;99.90
65036;DHT22;51603;49.300;8.880;2023-09-08T06:03:58;15.90;99.90
65036;DHT22;51603;49.300;8.880;2023-09-08T06:06:23;16.00;99.90
65036;DHT22;51603;49.300;8.880;2023-09-08T06:08:50;16.00;99.90
65036;DHT22;51603;49.300;8.880;2023-09-08T06:11:16;16.10;99.90
65036;DHT22;51603;49.300;8.880;2023-09-08T06:13:41;16.10;99.90
65036;DHT22;51603;49.300;8.880;2023-09-08T06:16:07;16.20;99.90
65036;DHT22;51603;49.300;8.880;2023-09-08T06:18:33;16.30;99.90
65036;DHT22;51603;49.300;8.880;2023-09-08T06:21:05;16.30;99.90
65036;DHT22;51603;49.300;8.880;2023-09-08T06:23:32;16.40;99.90
65036;DHT22;51603;49.300;8.880;2023-09-08T06:25:58;16.50;99.90
65036;DHT22;51603;49.300;8.880;2023-09-08T06:28:25;16.50;99.90
65036;DHT22;51603;49.300;8.880;2023-09-08T06:30:54;16.60;99.90
65036;DHT22;51603;49.300;8.880;2023-09-08T06:33:19;16.80;99.90
65036;DHT22;51603;49.300;8.880;2023-09-08T06:35:46;16.90;99.90
65036;DHT22;51603;49.300;8.880;2023-09-08T06:38:12;17.00;99.90
65036;DHT22;51603;49.300;8.880;2023-09-08T06:40:37;17.10;99.90
65036;DHT22;51603;49.300;8.880;2023-09-08T06:43:03;17.20;99.90
65036;DHT22;51603;49.300;8.880;2023-09-08T06:45:29;17.30;99.90
65036;DHT22;51603;49.300;8.880;2023-09-08T06:47:54;17.30;99.90
65036;DHT22;51603;49.300;8.880;2023-09-08T06:50:21;17.40;99.90
65036;DHT22;51603;49.300;8.880;2023-09-08T06:52:48;17.50;99.90
65036;DHT22;51603;49.300;8.880;2023-09-08T06:55:14;17.60;99.90
65036;DHT22;51603;49.300;8.880;2023-09-08T06:57:45;17.70;99.90
65036;DHT22;51603;49.300;8.880;2023-09-08T07:00:11;17.90;99.90
65036;DHT22;51603;49.300;8.880;2023-09-08T07:02:37;18.00;99.90
65036;DHT22;51603;49.300;8.880;2023-09-08T07:05:03;18.20;99.90
65036;DHT22;51603;49.300;8.880;2023-09-08T07:07:36;18.30;99.90
65036;DHT22;51603;49.300;8.880;2023-09-08T07:10:05;18.40;99.90
65036;DHT22;51603;49.300;8.880;2023-09-08T07:12:31;18.50;99.90
65036;DHT22;51603;49.300;8.880;2023-09-08T07:14:57;18.60;99.90
65036;DHT22;51603;49.300;8.880;2023-09-08T07:17:22;18.70;99.90
65036;DHT22;51603;49.300;8.880;2023-09-08T07:19:51;18.80;99.90
65036;DHT22;51603;49.300;8.880;2023-09-08T07:22:17;18.90;99.90
65036;DHT22;51603;49.300;8.880;2023-09-08T07:24:42;19.00;99.90
65036;DHT22;51603;49.300;8.880;2023-09-08T07:27:09;19.20;99.90
65036;DHT22;51603;49.300;8.880;2023-09-08T07:29:35;19.40;99.90
65036;DHT22;51603;49.300;8.880;2023-09-08T07:32:00;19.50;99.90
65036;DHT22;51603;49.300;8.880;2023-09-08T07:34:26;19.70;99.90
65036;DHT22;51603;49.300;8.880;2023-09-08T07:36:51;19.80;99.90
65036;DHT22;51603;49.300;8.880;2023-09-08T07:39:17;19.90;99.90
65036;DHT22;51603;49.300;8.880;2023-09-08T07:41:42;20.00;99.90
65036;DHT22;51603;49.300;8.880;2023-09-08T07:44:08;20.20;99.90
65036;DHT22;51603;49.300;8.880;2023-09-08T07:46:33;20.30;99.90
65036;DHT22;51603;49.300;8.880;2023-09-08T07:48:59;20.40;99.90
65036;DHT22;51603;49.300;8.880;2023-09-08T07:51:25;20.50;99.90
65036;DHT22;51603;49.300;8.880;2023-09-08T07:53:52;20.60;99.90
65036;DHT22;51603;49.300;8.880;2023-09-08T07:56:18;20.80;99.90
65036;DHT22;51603;49.300;8.880;2023-09-08T07:58:43;21.00;99.90
65036;DHT22;51603;49.300;8.880;2023-09-08T08:01:09;21.10;99.90
65036;DHT22;51603;49.300;8.880;2023-09-08T08:03:34;21.20;99.90
65036;DHT22;51603;49.300;8.880;2023-09-08T08:06:00;21.30;99.90
65036;DHT22;51603;49.300;8.880;2023-09-08T08:08:26;21.40;99.90
65036;DHT22;51603;49.300;8.880;2023-09-08T08:10:52;21.50;99.90
65036;DHT22;51603;49.300;8.880;2023-09-08T08:13:17;21.60;99.90
65036;DHT22;51603;49.300;8.880;2023-09-08T08:15:43;21.80;99.90
65036;DHT22;51603;49.300;8.880;2023-09-08T08:18:10;21.80;99.90
65036;DHT22;51603;49.300;8.880;2023-09-08T08:20:36;22.00;99.90
65036;DHT22;51603;49.300;8.880;2023-09-08T08:23:03;22.10;99.90
65036;DHT22;51603;49.300;8.880;2023-09-08T08:25:28;22.20;99.90
65036;DHT22;51603;49.300;8.880;2023-09-08T08:27:54;22.30;99.90
65036;DHT22;51603;49.300;8.880;2023-09-08T08:30:20;22.50;99.90
65036;DHT22;51603;49.300;8.880;2023-09-08T08:32:45;22.50;99.90
65036;DHT22;51603;49.300;8.880;2023-09-08T08:35:11;22.60;99.90
65036;DHT22;51603;49.300;8.880;2023-09-08T08:37:38;22.70;99.90
65036;DHT22;51603;49.300;8.880;2023-09-08T08:40:04;22.90;99.90
65036;DHT22;51603;49.300;8.880;2023-09-08T08:42:34;23.10;99.90
65036;DHT22;51603;49.300;8.880;2023-09-08T08:45:01;23.10;99.90
65036;DHT22;51603;49.300;8.880;2023-09-08T08:47:29;23.20;99.90
65036;DHT22;51603;49.300;8.880;2023-09-08T08:49:56;23.40;99.90
65036;DHT22;51603;49.300;8.880;2023-09-08T08:52:26;23.50;99.90
65036;DHT22;51603;49.300;8.880;2023-09-08T08:54:53;23.50;99.90
65036;DHT22;51603;49.300;8.880;2023-09-08T08:57:20;23.70;99.90
65036;DHT22;51603;49.300;8.880;2023-09-08T08:59:47;23.80;99.90
65036;DHT22;51603;49.300;8.880;2023-09-08T09:02:14;23.90;99.90
65036;DHT22;51603;49.300;8.880;2023-09-08T09:04:40;23.90;99.90
65036;DHT22;51603;49.300;8.880;2023-09-08T09:07:07;24.00;99.90
65036;DHT22;51603;49.300;8.880;2023-09-08T09:09:33;24.10;99.90
65036;DHT22;51603;49.300;8.880;2023-09-08T09:11:58;24.30;99.90
65036;DHT22;51603;49.300;8.880;2023-09-08T09:14:24;24.30;99.90
65036;DHT22;51603;49.300;8.880;2023-09-08T09:16:50;24.50;99.90
65036;DHT22;51603;49.300;8.880;2023-09-08T09:19:21;24.50;99.90
65036;DHT22;51603;49.300;8.880;2023-09-08T09:21:51;24.80;99.90
65036;DHT22;51603;49.300;8.880;2023-09-08T09:27:02;25.00;99.90
65036;DHT22;51603;49.300;8.880;2023-09-08T09:29:30;24.90;99.90
65036;DHT22;51603;49.300;8.880;2023-09-08T09:32:03;25.00;99.90
65036;DHT22;51603;49.300;8.880;2023-09-08T09:34:29;24.90;99.90
65036;DHT22;51603;49.300;8.880;2023-09-08T09:36:56;25.00;99.90
65036;DHT22;51603;49.300;8.880;2023-09-08T09:39:24;25.20;99.80
65036;DHT22;51603;49.300;8.880;2023-09-08T09:41:56;25.40;99.70
65036;DHT22;51603;49.300;8.880;2023-09-08T09:44:22;25.60;99.90
65036;DHT22;51603;49.300;8.880;2023-09-08T09:46:48;25.70;99.90
65036;DHT22;51603;49.300;8.880;2023-09-08T09:49:16;26.00;99.80
65036;DHT22;51603;49.300;8.880;2023-09-08T09:51:53;26.20;99.30
65036;DHT22;51603;49.300;8.880;2023-09-08T09:54:19;26.60;99.70
65036;DHT22;51603;49.300;8.880;2023-09-08T09:56:45;26.90;99.00
65036;DHT22;51603;49.300;8.880;2023-09-08T09:59:13;27.20;98.20
65036;DHT22;51603;49.300;8.880;2023-09-08T10:01:40;27.00;96.70
65036;DHT22;51603;49.300;8.880;2023-09-08T10:04:06;26.80;97.10
65036;DHT22;51603;49.300;8.880;2023-09-08T10:06:33;26.70;97.20
65036;DHT22;51603;49.300;8.880;2023-09-08T10:09:00;26.70;96.30
65036;DHT22;51603;49.300;8.880;2023-09-08T10:11:29;26.50;96.10
65036;DHT22;51603;49.300;8.880;2023-09-08T10:13:58;26.30;95.40
65036;DHT22;51603;49.300;8.880;2023-09-08T10:16:26;26.40;96.70
65036;DHT22;51603;49.300;8.880;2023-09-08T10:18:53;26.40;96.10
65036;DHT22;51603;49.300;8.880;2023-09-08T10:21:21;26.80;96.60
65036;DHT22;51603;49.300;8.880;2023-09-08T10:23:59;26.90;98.10
65036;DHT22;51603;49.300;8.880;2023-09-08T10:26:30;27.40;96.10
65036;DHT22;51603;49.300;8.880;2023-09-08T10:28:58;27.40;94.90
65036;DHT22;51603;49.300;8.880;2023-09-08T10:31:26;26.90;93.60
65036;DHT22;51603;49.300;8.880;2023-09-08T10:33:54;26.70;93.70
65036;DHT22;51603;49.300;8.880;2023-09-08T10:36:20;26.80;95.20
65036;DHT22;51603;49.300;8.880;2023-09-08T10:38:46;27.00;94.60
65036;DHT22;51603;49.300;8.880;2023-09-08T10:43:46;27.40;96.00
65036;DHT22;51603;49.300;8.880;2023-09-08T10:46:26;27.80;94.60
65036;DHT22;51603;49.300;8.880;2023-09-08T10:49:05;27.90;92.50
65036;DHT22;51603;49.300;8.880;2023-09-08T10:51:33;27.80;94.10
65036;DHT22;51603;49.300;8.880;2023-09-08T10:53:58;27.90;95.70
65036;DHT22;51603;49.300;8.880;2023-09-08T10:56:48;28.30;94.70
65036;DHT22;51603;49.300;8.880;2023-09-08T10:59:17;28.30;93.70
65036;DHT22;51603;49.300;8.880;2023-09-08T11:01:42;28.40;92.00
65036;DHT22;51603;49.300;8.880;2023-09-08T11:04:08;27.90;92.60
65036;DHT22;51603;49.300;8.880;2023-09-08T11:06:36;28.00;92.30
65036;DHT22;51603;49.300;8.880;2023-09-08T11:09:08;28.00;92.80
65036;DHT22;51603;49.300;8.880;2023-09-08T11:11:35;28.30;95.00
65036;DHT22;51603;49.300;8.880;2023-09-08T11:14:02;28.80;93.90
65036;DHT22;51603;49.300;8.880;2023-09-08T11:16:27;29.00;90.60
65036;DHT22;51603;49.300;8.880;2023-09-08T11:18:56;28.80;92.50
65036;DHT22;51603;49.300;8.880;2023-09-08T11:21:22;28.70;91.90
65036;DHT22;51603;49.300;8.880;2023-09-08T11:23:48;28.40;91.20
65036;DHT22;51603;49.300;8.880;2023-09-08T11:26:13;28.70;93.10
65036;DHT22;51603;49.300;8.880;2023-09-08T11:28:41;28.60;89.20
65036;DHT22;51603;49.300;8.880;2023-09-08T11:31:07;28.60;91.30
65036;DHT22;51603;49.300;8.880;2023-09-08T11:33:34;28.80;92.70
65036;DHT22;51603;49.300;8.880;2023-09-08T11:36:11;29.20;92.90
65036;DHT22;51603;49.300;8.880;2023-09-08T11:38:37;29.30;90.10
65036;DHT22;51603;49.300;8.880;2023-09-08T11:41:03;29.10;87.70
65036;DHT22;51603;49.300;8.880;2023-09-08T11:43:29;29.30;91.80
65036;DHT22;51603;49.300;8.880;2023-09-08T11:45:58;29.70;89.90
65036;DHT22;51603;49.300;8.880;2023-09-08T11:48:24;29.60;84.90
65036;DHT22;51603;49.300;8.880;2023-09-08T11:50:53;29.50;90.60
65036;DHT22;51603;49.300;8.880;2023-09-08T11:53:20;30.00;91.40
65036;DHT22;51603;49.300;8.880;2023-09-08T11:55:46;30.00;86.70
65036;DHT22;51603;49.300;8.880;2023-09-08T11:58:12;29.60;88.40
65036;DHT22;51603;49.300;8.880;2023-09-08T12:00:38;29.70;89.40
65036;DHT22;51603;49.300;8.880;2023-09-08T12:03:14;29.70;89.20
65036;DHT22;51603;49.300;8.880;2023-09-08T12:05:41;29.90;85.00
65036;DHT22;51603;49.300;8.880;2023-09-08T12:08:07;30.00;89.10
65036;DHT22;51603;49.300;8.880;2023-09-08T12:10:42;29.60;81.30
65036;DHT22;51603;49.300;8.880;2023-09-08T12:13:08;29.90;89.60
65036;DHT22;51603;49.300;8.880;2023-09-08T12:15:39;30.00;85.20
65036;DHT22;51603;49.300;8.880;2023-09-08T12:18:07;30.30;86.50
65036;DHT22;51603;49.300;8.880;2023-09-08T12:20:33;29.90;81.60
65036;DHT22;51603;49.300;8.880;2023-09-08T12:23:04;29.60;84.30
65036;DHT22;51603;49.300;8.880;2023-09-08T12:25:30;29.70;88.20
65036;DHT22;51603;49.300;8.880;2023-09-08T12:28:00;30.00;82.80
65036;DHT22;51603;49.300;8.880;2023-09-08T12:30:26;30.20;87.50
65036;DHT22;51603;49.300;8.880;2023-09-08T12:32:58;30.20;83.90
65036;DHT22;51603;49.300;8.880;2023-09-08T12:35:24;29.90;82.70
65036;DHT22;51603;49.300;8.880;2023-09-08T12:38:00;29.80;82.00
65036;DHT22;51603;49.300;8.880;2023-09-08T12:40:27;29.60;82.40
65036;DHT22;51603;49.300;8.880;2023-09-08T12:42:53;29.70;84.70
65036;DHT22;51603;49.300;8.880;2023-09-08T12:45:22;30.10;85.40
65036;DHT22;51603;49.300;8.880;2023-09-08T12:47:49;30.20;83.50
65036;DHT22;51603;49.300;8.880;2023-09-08T12:50:14;30.40;82.50
65036;DHT22;51603;49.300;8.880;2023-09-08T12:52:40;30.40;83.70
65036;DHT22;51603;49.300;8.880;2023-09-08T12:55:06;30.40;78.80
65036;DHT22;51603;49.300;8.880;2023-09-08T12:57:32;30.20;82.80
65036;DHT22;51603;49.300;8.880;2023-09-08T12:59:58;30.40;84.60
65036;DHT22;51603;49.300;8.880;2023-09-08T13:02:23;30.70;79.10
65036;DHT22;51603;49.300;8.880;2023-09-08T13:04:49;30.70;80.00
65036;DHT22;51603;49.300;8.880;2023-09-08T13:07:16;30.90;84.20
65036;DHT22;51603;49.300;8.880;2023-09-08T13:09:41;31.20;85.00
65036;DHT22;51603;49.300;8.880;2023-09-08T13:12:07;31.30;80.10
65036;DHT22;51603;49.300;8.880;2023-09-08T13:14:34;31.50;81.80
65036;DHT22;51603;49.300;8.880;2023-09-08T13:17:00;31.40;79.60
65036;DHT22;51603;49.300;8.880;2023-09-08T13:19:26;31.60;84.10
65036;DHT22;51603;49.300;8.880;2023-09-08T13:21:51;31.70;82.50
65036;DHT22;51603;49.300;8.880;2023-09-08T13:24:17;31.40;76.70
65036;DHT22;51603;49.300;8.880;2023-09-08T13:26:42;31.40;76.40
65036;DHT22;51603;49.300;8.880;2023-09-08T13:29:08;31.40;74.50
65036;DHT22;51603;49.300;8.880;2023-09-08T13:31:33;31.60;84.30
65036;DHT22;51603;49.300;8.880;2023-09-08T13:33:59;31.60;76.90
65036;DHT22;51603;49.300;8.880;2023-09-08T13:36:24;31.70;78.90
65036;DHT22;51603;49.300;8.880;2023-09-08T13:38:50;31.60;72.50
65036;DHT22;51603;49.300;8.880;2023-09-08T13:41:15;31.60;75.90
65036;DHT22;51603;49.300;8.880;2023-09-08T13:43:41;31.70;73.70
65036;DHT22;51603;49.300;8.880;2023-09-08T13:46:06;31.90;77.10
65036;DHT22;51603;49.300;8.880;2023-09-08T13:48:32;32.00;71.80
65036;DHT22;51603;49.300;8.880;2023-09-08T13:51:01;32.10;76.40
65036;DHT22;51603;49.300;8.880;2023-09-08T13:53:28;32.00;74.00
65036;DHT22;51603;49.300;8.880;2023-09-08T13:55:53;32.20;73.30
65036;DHT22;51603;49.300;8.880;2023-09-08T13:58:19;32.30;69.90
65036;DHT22;51603;49.300;8.880;2023-09-08T14:00:44;32.10;75.40
65036;DHT22;51603;49.300;8.880;2023-09-08T14:03:10;32.10;68.70
65036;DHT22;51603;49.300;8.880;2023-09-08T14:05:35;31.90;75.30
65036;DHT22;51603;49.300;8.880;2023-09-08T14:08:01;32.20;78.20
65036;DHT22;51603;49.300;8.880;2023-09-08T14:10:26;32.20;69.00
65036;DHT22;51603;49.300;8.880;2023-09-08T14:12:52;32.30;73.90
65036;DHT22;51603;49.300;8.880;2023-09-08T14:15:17;32.40;68.70
65036;DHT22;51603;49.300;8.880;2023-09-08T14:17:43;32.30;68.80
65036;DHT22;51603;49.300;8.880;2023-09-08T14:20:09;32.30;67.30
65036;DHT22;51603;49.300;8.880;2023-09-08T14:22:35;32.50;71.20
65036;DHT22;51603;49.300;8.880;2023-09-08T14:25:00;32.50;68.90
65036;DHT22;51603;49.300;8.880;2023-09-08T14:27:26;32.50;69.30
65036;DHT22;51603;49.300;8.880;2023-09-08T14:29:51;32.30;61.00
65036;DHT22;51603;49.300;8.880;2023-09-08T14:32:17;32.10;68.50
65036;DHT22;51603;49.300;8.880;2023-09-08T14:34:43;32.30;69.20
65036;DHT22;51603;49.300;8.880;2023-09-08T14:37:08;32.40;65.40
65036;DHT22;51603;49.300;8.880;2023-09-08T14:39:34;32.30;63.90
65036;DHT22;51603;49.300;8.880;2023-09-08T14:41:59;32.40;65.50
65036;DHT22;51603;49.300;8.880;2023-09-08T14:44:25;32.30;67.50
65036;DHT22;51603;49.300;8.880;2023-09-08T14:46:51;32.10;62.50
65036;DHT22;51603;49.300;8.880;2023-09-08T14:49:17;32.10;66.80
65036;DHT22;51603;49.300;8.880;2023-09-08T14:51:42;32.00;65.00
65036;DHT22;51603;49.300;8.880;2023-09-08T14:54:08;32.20;69.90
65036;DHT22;51603;49.300;8.880;2023-09-08T14:56:33;32.30;67.40
65036;DHT22;51603;49.300;8.880;2023-09-08T14:58:59;31.90;66.60
65036;DHT22;51603;49.300;8.880;2023-09-08T15:01:25;31.90;67.40
65036;DHT22;51603;49.300;8.880;2023-09-08T15:03:51;32.00;68.10
65036;DHT22;51603;49.300;8.880;2023-09-08T15:06:16;32.10;66.80
65036;DHT22;51603;49.300;8.880;2023-09-08T15:08:42;32.20;68.60
65036;DHT22;51603;49.300;8.880;2023-09-08T15:11:09;32.30;70.30
65036;DHT22;51603;49.300;8.880;2023-09-08T15:13:34;32.40;66.40
65036;DHT22;51603;49.300;8.880;2023-09-08T15:16:00;32.20;63.50
65036;DHT22;51603;49.300;8.880;2023-09-08T15:18:25;32.40;65.60
65036;DHT22;51603;49.300;8.880;2023-09-08T15:20:53;32.50;60.60
65036;DHT22;51603;49.300;8.880;2023-09-08T15:23:19;32.40;57.50
65036;DHT22;51603;49.300;8.880;2023-09-08T15:25:56;32.40;65.00
65036;DHT22;51603;49.300;8.880;2023-09-08T15:28:22;32.30;61.40
65036;DHT22;51603;49.300;8.880;2023-09-08T15:30:52;32.30;62.90
65036;DHT22;51603;49.300;8.880;2023-09-08T15:33:18;32.20;63.80